Terminal Aerodrome Forecast
Issued by NWS Springfield, MO

Home | Current Version | Previous Version | Text Only | Print | Product List | Glossary On
Versions: 1 2 3 4 5 6 7 8 9 10 11 12 13 14 15 16 17 18
000
FTUS43 KSGF 271000 AAA
TAFSGF
TAF AMD
KSGF 271047Z 2711/2806 35005KT 4SM BR BKN004
      TEMPO 2712/2714 1/2SM FG VV003
     FM271400 36007KT 6SM BR BKN007
     FM271500 36008KT P6SM BKN015
     FM271600 36009KT P6SM FEW025
     FM280100 VRB04KT P6SM SKC=

USA.gov is the U.S. government's official web portal to all federal, state and local government web resources and services.